sensor_id;sensor_type;location;lat;lon;timestamp;pressure;altitude;pressure_sealevel;temperature;humidity
66668;BME280;57205;51.438;-2.006;2022-08-02T00:02:18;100965.00;;;19.65;71.69
66668;BME280;57205;51.438;-2.006;2022-08-02T00:04:44;100968.03;;;19.64;71.67
66668;BME280;57205;51.438;-2.006;2022-08-02T00:07:09;100970.44;;;19.65;71.63
66668;BME280;57205;51.438;-2.006;2022-08-02T00:09:35;100966.75;;;19.61;71.79
66668;BME280;57205;51.438;-2.006;2022-08-02T00:12:00;100967.06;;;19.60;71.96
66668;BME280;57205;51.438;-2.006;2022-08-02T00:14:26;100968.16;;;19.59;72.18
66668;BME280;57205;51.438;-2.006;2022-08-02T00:16:51;100972.50;;;19.60;72.49
66668;BME280;57205;51.438;-2.006;2022-08-02T00:19:17;100968.97;;;19.59;72.60
66668;BME280;57205;51.438;-2.006;2022-08-02T00:21:42;100972.81;;;19.58;72.75
66668;BME280;57205;51.438;-2.006;2022-08-02T00:24:08;100969.91;;;19.55;72.79
66668;BME280;57205;51.438;-2.006;2022-08-02T00:26:33;100959.53;;;19.48;72.77
66668;BME280;57205;51.438;-2.006;2022-08-02T00:28:59;100952.03;;;19.45;73.14
66668;BME280;57205;51.438;-2.006;2022-08-02T00:31:24;100952.63;;;19.42;73.39
66668;BME280;57205;51.438;-2.006;2022-08-02T00:33:50;100945.31;;;19.42;73.47
66668;BME280;57205;51.438;-2.006;2022-08-02T00:36:15;100929.03;;;19.42;73.56
66668;BME280;57205;51.438;-2.006;2022-08-02T00:38:41;100929.81;;;19.43;73.70
66668;BME280;57205;51.438;-2.006;2022-08-02T00:41:15;100932.06;;;19.41;73.75
66668;BME280;57205;51.438;-2.006;2022-08-02T00:43:41;100930.44;;;19.40;73.69
66668;BME280;57205;51.438;-2.006;2022-08-02T00:46:07;100927.22;;;19.38;73.81
66668;BME280;57205;51.438;-2.006;2022-08-02T00:48:33;100937.00;;;19.39;74.02
66668;BME280;57205;51.438;-2.006;2022-08-02T00:50:58;100939.53;;;19.35;74.58
66668;BME280;57205;51.438;-2.006;2022-08-02T00:53:24;100947.69;;;19.35;74.62
66668;BME280;57205;51.438;-2.006;2022-08-02T00:55:49;100939.84;;;19.34;74.87
66668;BME280;57205;51.438;-2.006;2022-08-02T00:58:14;100921.97;;;19.33;74.96
66668;BME280;57205;51.438;-2.006;2022-08-02T01:00:40;100930.09;;;19.33;75.14
66668;BME280;57205;51.438;-2.006;2022-08-02T01:03:06;100916.00;;;19.31;75.58
66668;BME280;57205;51.438;-2.006;2022-08-02T01:05:31;100919.06;;;19.29;75.72
66668;BME280;57205;51.438;-2.006;2022-08-02T01:07:57;100922.56;;;19.30;76.00
66668;BME280;57205;51.438;-2.006;2022-08-02T01:10:23;100927.03;;;19.26;76.35
66668;BME280;57205;51.438;-2.006;2022-08-02T01:12:48;100930.22;;;19.28;76.65
66668;BME280;57205;51.438;-2.006;2022-08-02T01:15:15;100923.81;;;19.24;76.75
66668;BME280;57205;51.438;-2.006;2022-08-02T01:28:42;100910.72;;;19.17;77.44
66668;BME280;57205;51.438;-2.006;2022-08-02T01:34:01;100907.19;;;19.17;77.70
66668;BME280;57205;51.438;-2.006;2022-08-02T01:36:56;100898.25;;;19.16;78.05
66668;BME280;57205;51.438;-2.006;2022-08-02T01:39:25;100904.31;;;19.13;78.22
66668;BME280;57205;51.438;-2.006;2022-08-02T01:41:54;100911.81;;;19.16;78.46
66668;BME280;57205;51.438;-2.006;2022-08-02T01:44:22;100904.81;;;19.15;78.58
66668;BME280;57205;51.438;-2.006;2022-08-02T01:46:49;100917.88;;;19.13;78.65
66668;BME280;57205;51.438;-2.006;2022-08-02T01:49:17;100917.06;;;19.13;78.79
66668;BME280;57205;51.438;-2.006;2022-08-02T01:51:46;100908.94;;;19.13;78.82
66668;BME280;57205;51.438;-2.006;2022-08-02T01:54:32;100913.72;;;19.16;78.94
66668;BME280;57205;51.438;-2.006;2022-08-02T01:57:00;100907.53;;;19.15;79.04
66668;BME280;57205;51.438;-2.006;2022-08-02T01:59:28;100908.94;;;19.13;79.10
66668;BME280;57205;51.438;-2.006;2022-08-02T02:01:57;100903.84;;;19.11;79.32
66668;BME280;57205;51.438;-2.006;2022-08-02T02:04:25;100906.06;;;19.09;79.40
66668;BME280;57205;51.438;-2.006;2022-08-02T02:06:52;100899.50;;;19.10;79.45
66668;BME280;57205;51.438;-2.006;2022-08-02T02:09:20;100902.22;;;19.10;79.57
66668;BME280;57205;51.438;-2.006;2022-08-02T02:11:48;100900.63;;;19.09;79.47
66668;BME280;57205;51.438;-2.006;2022-08-02T02:14:15;100900.94;;;19.08;79.41
66668;BME280;57205;51.438;-2.006;2022-08-02T02:16:43;100899.34;;;19.07;79.67
66668;BME280;57205;51.438;-2.006;2022-08-02T02:19:15;100890.09;;;19.08;79.72
66668;BME280;57205;51.438;-2.006;2022-08-02T02:21:42;100894.88;;;19.02;80.23
66668;BME280;57205;51.438;-2.006;2022-08-02T02:24:09;100899.47;;;19.02;80.19
66668;BME280;57205;51.438;-2.006;2022-08-02T02:26:36;100886.25;;;19.00;80.30
66668;BME280;57205;51.438;-2.006;2022-08-02T02:29:04;100892.16;;;19.02;80.23
66668;BME280;57205;51.438;-2.006;2022-08-02T02:31:37;100887.00;;;19.01;80.32
66668;BME280;57205;51.438;-2.006;2022-08-02T02:34:13;100883.34;;;18.97;80.56
66668;BME280;57205;51.438;-2.006;2022-08-02T02:36:41;100882.53;;;18.96;80.72
66668;BME280;57205;51.438;-2.006;2022-08-02T02:39:11;100879.66;;;18.93;80.86
66668;BME280;57205;51.438;-2.006;2022-08-02T02:41:37;100877.28;;;18.91;80.74
66668;BME280;57205;51.438;-2.006;2022-08-02T02:44:05;100877.28;;;18.91;81.06
66668;BME280;57205;51.438;-2.006;2022-08-02T02:46:32;100869.91;;;18.92;80.99
66668;BME280;57205;51.438;-2.006;2022-08-02T02:48:59;100864.81;;;18.90;81.22
66668;BME280;57205;51.438;-2.006;2022-08-02T02:51:25;100861.28;;;18.90;81.42
66668;BME280;57205;51.438;-2.006;2022-08-02T02:53:52;100853.97;;;18.90;81.65
66668;BME280;57205;51.438;-2.006;2022-08-02T02:56:18;100862.41;;;18.89;81.76
66668;BME280;57205;51.438;-2.006;2022-08-02T02:58:44;100860.69;;;18.93;81.35
66668;BME280;57205;51.438;-2.006;2022-08-02T03:01:11;100858.47;;;18.95;81.46
66668;BME280;57205;51.438;-2.006;2022-08-02T03:04:01;100856.34;;;18.92;81.81
66668;BME280;57205;51.438;-2.006;2022-08-02T03:06:28;100863.41;;;18.93;81.69
66668;BME280;57205;51.438;-2.006;2022-08-02T03:08:54;100861.66;;;18.97;81.77
66668;BME280;57205;51.438;-2.006;2022-08-02T03:11:21;100862.16;;;18.99;81.61
66668;BME280;57205;51.438;-2.006;2022-08-02T03:13:48;100864.38;;;18.97;81.81
66668;BME280;57205;51.438;-2.006;2022-08-02T03:16:14;100865.97;;;18.98;81.75
66668;BME280;57205;51.438;-2.006;2022-08-02T03:18:41;100858.31;;;19.00;81.80
66668;BME280;57205;51.438;-2.006;2022-08-02T03:21:09;100862.59;;;19.01;81.74
66668;BME280;57205;51.438;-2.006;2022-08-02T03:23:40;100849.53;;;19.03;81.79
66668;BME280;57205;51.438;-2.006;2022-08-02T03:26:07;100844.44;;;19.01;81.70
66668;BME280;57205;51.438;-2.006;2022-08-02T03:28:34;100841.41;;;19.03;81.55
66668;BME280;57205;51.438;-2.006;2022-08-02T03:31:00;100841.72;;;19.01;81.93
66668;BME280;57205;51.438;-2.006;2022-08-02T03:33:26;100841.41;;;19.03;81.75
66668;BME280;57205;51.438;-2.006;2022-08-02T03:35:54;100839.81;;;19.02;81.79
66668;BME280;57205;51.438;-2.006;2022-08-02T03:38:22;100834.38;;;19.02;81.97
66668;BME280;57205;51.438;-2.006;2022-08-02T03:40:48;100847.13;;;19.01;81.96
66668;BME280;57205;51.438;-2.006;2022-08-02T03:43:15;100839.31;;;19.00;82.15
66668;BME280;57205;51.438;-2.006;2022-08-02T03:45:43;100844.25;;;18.98;82.35
66668;BME280;57205;51.438;-2.006;2022-08-02T03:48:10;100843.63;;;19.01;82.05
66668;BME280;57205;51.438;-2.006;2022-08-02T03:50:37;100841.53;;;18.98;82.29
66668;BME280;57205;51.438;-2.006;2022-08-02T03:53:03;100840.44;;;18.99;82.13
66668;BME280;57205;51.438;-2.006;2022-08-02T03:55:29;100836.13;;;18.98;82.05
66668;BME280;57205;51.438;-2.006;2022-08-02T03:57:55;100821.59;;;18.94;82.27
66668;BME280;57205;51.438;-2.006;2022-08-02T04:00:21;100830.22;;;18.96;82.70
66668;BME280;57205;51.438;-2.006;2022-08-02T04:02:47;100826.69;;;18.95;82.33
66668;BME280;57205;51.438;-2.006;2022-08-02T04:05:14;100822.88;;;18.96;82.31
66668;BME280;57205;51.438;-2.006;2022-08-02T04:07:40;100830.22;;;18.96;82.42
66668;BME280;57205;51.438;-2.006;2022-08-02T04:10:06;100822.56;;;18.98;82.30
66668;BME280;57205;51.438;-2.006;2022-08-02T04:12:31;100822.25;;;18.99;82.28
66668;BME280;57205;51.438;-2.006;2022-08-02T04:14:58;100825.44;;;19.01;81.97
66668;BME280;57205;51.438;-2.006;2022-08-02T04:17:24;100823.53;;;19.02;82.12
66668;BME280;57205;51.438;-2.006;2022-08-02T04:23:06;100817.13;;;18.98;82.40
66668;BME280;57205;51.438;-2.006;2022-08-02T04:25:35;100816.66;;;18.96;82.53
66668;BME280;57205;51.438;-2.006;2022-08-02T04:28:01;100823.69;;;18.97;82.45
66668;BME280;57205;51.438;-2.006;2022-08-02T04:30:27;100818.13;;;19.02;82.15
66668;BME280;57205;51.438;-2.006;2022-08-02T04:32:54;100818.44;;;19.00;82.42
66668;BME280;57205;51.438;-2.006;2022-08-02T04:35:20;100821.91;;;19.01;82.29
66668;BME280;57205;51.438;-2.006;2022-08-02T04:37:46;100819.09;;;19.06;82.39
66668;BME280;57205;51.438;-2.006;2022-08-02T04:40:12;100814.75;;;19.05;82.27
66668;BME280;57205;51.438;-2.006;2022-08-02T04:42:39;100811.72;;;19.06;82.10
66668;BME280;57205;51.438;-2.006;2022-08-02T04:45:05;100827.72;;;19.08;82.26
66668;BME280;57205;51.438;-2.006;2022-08-02T04:47:31;100825.47;;;19.10;82.00
66668;BME280;57205;51.438;-2.006;2022-08-02T04:49:57;100835.22;;;19.11;81.80
66668;BME280;57205;51.438;-2.006;2022-08-02T04:52:23;100835.69;;;19.13;81.80
66668;BME280;57205;51.438;-2.006;2022-08-02T04:54:48;100832.97;;;19.13;81.97
66668;BME280;57205;51.438;-2.006;2022-08-02T04:57:16;100824.19;;;19.16;81.74
66668;BME280;57205;51.438;-2.006;2022-08-02T04:59:59;100824.53;;;19.14;82.03
66668;BME280;57205;51.438;-2.006;2022-08-02T05:02:25;100823.41;;;19.15;81.96
66668;BME280;57205;51.438;-2.006;2022-08-02T05:04:51;100825.50;;;19.18;81.79
66668;BME280;57205;51.438;-2.006;2022-08-02T05:07:17;100826.78;;;19.21;81.92
66668;BME280;57205;51.438;-2.006;2022-08-02T05:09:42;100830.75;;;19.23;81.98
66668;BME280;57205;51.438;-2.006;2022-08-02T05:12:08;100824.72;;;19.26;81.55
66668;BME280;57205;51.438;-2.006;2022-08-02T05:14:33;100822.78;;;19.27;81.62
66668;BME280;57205;51.438;-2.006;2022-08-02T05:16:59;100824.88;;;19.30;81.71
66668;BME280;57205;51.438;-2.006;2022-08-02T05:19:24;100817.91;;;19.37;81.13
66668;BME280;57205;51.438;-2.006;2022-08-02T05:21:50;100821.72;;;19.36;81.12
66668;BME280;57205;51.438;-2.006;2022-08-02T05:24:15;100822.19;;;19.38;81.04
66668;BME280;57205;51.438;-2.006;2022-08-02T05:26:41;100823.00;;;19.39;81.13
66668;BME280;57205;51.438;-2.006;2022-08-02T05:29:06;100822.34;;;19.42;81.00
66668;BME280;57205;51.438;-2.006;2022-08-02T05:31:32;100824.94;;;19.47;80.99
66668;BME280;57205;51.438;-2.006;2022-08-02T05:33:57;100824.78;;;19.52;80.62
66668;BME280;57205;51.438;-2.006;2022-08-02T05:36:23;100822.69;;;19.58;80.42
66668;BME280;57205;51.438;-2.006;2022-08-02T05:38:48;100830.69;;;19.63;80.21
66668;BME280;57205;51.438;-2.006;2022-08-02T05:41:17;100825.91;;;19.68;79.75
66668;BME280;57205;51.438;-2.006;2022-08-02T05:43:44;100825.72;;;19.73;80.02
66668;BME280;57205;51.438;-2.006;2022-08-02T05:46:09;100824.13;;;19.81;79.64
66668;BME280;57205;51.438;-2.006;2022-08-02T05:48:35;100834.53;;;19.87;79.30
66668;BME280;57205;51.438;-2.006;2022-08-02T05:51:10;100829.25;;;19.91;79.21
66668;BME280;57205;51.438;-2.006;2022-08-02T05:53:44;100827.16;;;19.96;79.01
66668;BME280;57205;51.438;-2.006;2022-08-02T05:59:16;100815.19;;;20.23;78.18
66668;BME280;57205;51.438;-2.006;2022-08-02T06:01:47;100811.69;;;20.60;76.51
66668;BME280;57205;51.438;-2.006;2022-08-02T06:04:24;100811.72;;;20.89;75.16
66668;BME280;57205;51.438;-2.006;2022-08-02T06:06:52;100810.75;;;21.23;74.24
66668;BME280;57205;51.438;-2.006;2022-08-02T06:09:21;100810.22;;;21.79;71.73
66668;BME280;57205;51.438;-2.006;2022-08-02T06:11:50;100805.69;;;22.16;70.25
66668;BME280;57205;51.438;-2.006;2022-08-02T06:14:17;100804.94;;;22.40;69.83
66668;BME280;57205;51.438;-2.006;2022-08-02T06:16:43;100809.78;;;22.91;67.16
66668;BME280;57205;51.438;-2.006;2022-08-02T06:19:11;100803.69;;;23.46;64.91
66668;BME280;57205;51.438;-2.006;2022-08-02T06:21:38;100811.19;;;23.88;63.47
66668;BME280;57205;51.438;-2.006;2022-08-02T06:24:05;100811.47;;;24.27;62.07
66668;BME280;57205;51.438;-2.006;2022-08-02T06:26:31;100809.28;;;24.48;61.30
66668;BME280;57205;51.438;-2.006;2022-08-02T06:28:57;100810.91;;;24.80;60.38
66668;BME280;57205;51.438;-2.006;2022-08-02T06:31:23;100808.63;;;25.32;58.23
66668;BME280;57205;51.438;-2.006;2022-08-02T06:33:48;100818.69;;;25.28;57.86
66668;BME280;57205;51.438;-2.006;2022-08-02T06:36:51;100818.19;;;25.23;58.55
66668;BME280;57205;51.438;-2.006;2022-08-02T06:39:35;100827.66;;;24.94;59.02
66668;BME280;57205;51.438;-2.006;2022-08-02T06:42:11;100822.84;;;24.72;59.62
66668;BME280;57205;51.438;-2.006;2022-08-02T06:44:37;100816.09;;;24.54;60.25
66668;BME280;57205;51.438;-2.006;2022-08-02T06:47:03;100820.91;;;24.29;60.98
66668;BME280;57205;51.438;-2.006;2022-08-02T06:49:29;100831.19;;;24.04;61.39
66668;BME280;57205;51.438;-2.006;2022-08-02T06:51:54;100825.41;;;23.94;62.20
66668;BME280;57205;51.438;-2.006;2022-08-02T06:54:20;100828.69;;;23.72;63.02
66668;BME280;57205;51.438;-2.006;2022-08-02T06:56:46;100833.38;;;23.59;63.61
66668;BME280;57205;51.438;-2.006;2022-08-02T06:59:12;100830.44;;;23.52;63.96
66668;BME280;57205;51.438;-2.006;2022-08-02T07:01:37;100834.22;;;23.36;64.51
66668;BME280;57205;51.438;-2.006;2022-08-02T07:04:03;100837.75;;;23.24;65.01
66668;BME280;57205;51.438;-2.006;2022-08-02T07:06:29;100829.00;;;23.31;65.01
66668;BME280;57205;51.438;-2.006;2022-08-02T07:08:55;100829.81;;;23.31;64.91
66668;BME280;57205;51.438;-2.006;2022-08-02T07:11:20;100835.25;;;23.31;64.91
66668;BME280;57205;51.438;-2.006;2022-08-02T07:13:46;100829.66;;;23.40;64.88
66668;BME280;57205;51.438;-2.006;2022-08-02T07:16:11;100834.09;;;23.32;65.28
66668;BME280;57205;51.438;-2.006;2022-08-02T07:18:37;100834.78;;;23.29;65.15
66668;BME280;57205;51.438;-2.006;2022-08-02T07:21:02;100836.16;;;23.35;65.27
66668;BME280;57205;51.438;-2.006;2022-08-02T07:23:31;100842.97;;;23.17;65.86
66668;BME280;57205;51.438;-2.006;2022-08-02T07:25:57;100837.19;;;23.06;66.11
66668;BME280;57205;51.438;-2.006;2022-08-02T07:28:23;100838.88;;;22.99;66.38
66668;BME280;57205;51.438;-2.006;2022-08-02T07:30:48;100845.69;;;22.93;66.81
66668;BME280;57205;51.438;-2.006;2022-08-02T07:33:14;100843.44;;;22.95;66.62
66668;BME280;57205;51.438;-2.006;2022-08-02T07:35:40;100843.91;;;22.85;67.21
66668;BME280;57205;51.438;-2.006;2022-08-02T07:38:06;100849.44;;;22.76;67.47
66668;BME280;57205;51.438;-2.006;2022-08-02T07:40:31;100840.50;;;22.76;67.56
66668;BME280;57205;51.438;-2.006;2022-08-02T07:42:57;100849.25;;;22.81;67.43
66668;BME280;57205;51.438;-2.006;2022-08-02T07:45:23;100847.75;;;22.84;67.39
66668;BME280;57205;51.438;-2.006;2022-08-02T07:47:49;100841.84;;;22.94;67.16
66668;BME280;57205;51.438;-2.006;2022-08-02T07:50:17;100837.75;;;23.12;66.38
66668;BME280;57205;51.438;-2.006;2022-08-02T07:52:43;100835.13;;;23.27;65.64
66668;BME280;57205;51.438;-2.006;2022-08-02T07:55:10;100842.31;;;23.20;66.07
66668;BME280;57205;51.438;-2.006;2022-08-02T07:57:37;100841.63;;;23.11;66.07
66668;BME280;57205;51.438;-2.006;2022-08-02T08:00:04;100844.00;;;23.12;66.29
66668;BME280;57205;51.438;-2.006;2022-08-02T08:02:30;100849.91;;;23.02;66.68
66668;BME280;57205;51.438;-2.006;2022-08-02T08:04:56;100854.34;;;22.95;66.78
66668;BME280;57205;51.438;-2.006;2022-08-02T08:07:21;100848.78;;;22.91;67.16
66668;BME280;57205;51.438;-2.006;2022-08-02T08:09:47;100850.38;;;22.92;66.80
66668;BME280;57205;51.438;-2.006;2022-08-02T08:12:15;100853.69;;;22.98;66.38
66668;BME280;57205;51.438;-2.006;2022-08-02T08:14:41;100856.63;;;22.93;66.75
66668;BME280;57205;51.438;-2.006;2022-08-02T08:17:06;100855.94;;;22.84;67.44
66668;BME280;57205;51.438;-2.006;2022-08-02T08:19:33;100854.13;;;22.88;67.58
66668;BME280;57205;51.438;-2.006;2022-08-02T08:21:59;100850.28;;;22.89;66.98
66668;BME280;57205;51.438;-2.006;2022-08-02T08:24:25;100855.16;;;22.95;66.91
66668;BME280;57205;51.438;-2.006;2022-08-02T08:26:51;100850.25;;;23.01;66.56
66668;BME280;57205;51.438;-2.006;2022-08-02T08:29:17;100843.09;;;23.08;66.22
66668;BME280;57205;51.438;-2.006;2022-08-02T08:31:42;100845.81;;;23.08;66.22
66668;BME280;57205;51.438;-2.006;2022-08-02T08:34:08;100845.47;;;23.10;66.30
66668;BME280;57205;51.438;-2.006;2022-08-02T08:36:33;100844.34;;;23.11;66.33
66668;BME280;57205;51.438;-2.006;2022-08-02T08:38:58;100844.22;;;23.19;66.01
66668;BME280;57205;51.438;-2.006;2022-08-02T08:41:24;100835.13;;;23.27;65.17
66668;BME280;57205;51.438;-2.006;2022-08-02T08:43:49;100837.50;;;23.41;65.03
66668;BME280;57205;51.438;-2.006;2022-08-02T08:46:32;100837.19;;;23.31;65.19
66668;BME280;57205;51.438;-2.006;2022-08-02T08:49:25;100837.75;;;23.36;65.02
66668;BME280;57205;51.438;-2.006;2022-08-02T08:51:55;100839.81;;;23.39;65.16
66668;BME280;57205;51.438;-2.006;2022-08-02T08:54:23;100834.78;;;23.29;65.04
66668;BME280;57205;51.438;-2.006;2022-08-02T08:56:53;100839.25;;;23.34;64.88
66668;BME280;57205;51.438;-2.006;2022-08-02T08:59:19;100830.22;;;23.45;64.73
66668;BME280;57205;51.438;-2.006;2022-08-02T09:01:45;100831.13;;;23.49;64.62
66668;BME280;57205;51.438;-2.006;2022-08-02T09:04:11;100825.09;;;23.44;64.64
66668;BME280;57205;51.438;-2.006;2022-08-02T09:06:39;100826.56;;;23.53;64.35
66668;BME280;57205;51.438;-2.006;2022-08-02T09:09:05;100834.63;;;23.62;64.18
66668;BME280;57205;51.438;-2.006;2022-08-02T09:11:30;100824.00;;;23.72;63.57
66668;BME280;57205;51.438;-2.006;2022-08-02T09:14:00;100829.06;;;23.86;63.36
66668;BME280;57205;51.438;-2.006;2022-08-02T09:18:53;100828.94;;;24.22;62.15
66668;BME280;57205;51.438;-2.006;2022-08-02T09:21:19;100831.63;;;24.50;61.26
66668;BME280;57205;51.438;-2.006;2022-08-02T09:23:51;100818.41;;;24.67;60.82
66668;BME280;57205;51.438;-2.006;2022-08-02T09:26:19;100836.25;;;24.92;60.26
66668;BME280;57205;51.438;-2.006;2022-08-02T09:28:47;100832.63;;;24.88;60.20
66668;BME280;57205;51.438;-2.006;2022-08-02T09:31:19;100831.28;;;24.82;60.15
66668;BME280;57205;51.438;-2.006;2022-08-02T09:33:51;100837.69;;;24.71;60.75
66668;BME280;57205;51.438;-2.006;2022-08-02T09:36:17;100833.78;;;24.72;60.58
66668;BME280;57205;51.438;-2.006;2022-08-02T09:39:04;100839.94;;;24.69;60.78
66668;BME280;57205;51.438;-2.006;2022-08-02T09:41:34;100832.28;;;24.74;60.83
66668;BME280;57205;51.438;-2.006;2022-08-02T09:44:03;100826.97;;;24.81;60.73
66668;BME280;57205;51.438;-2.006;2022-08-02T09:46:31;100834.56;;;24.88;60.40
66668;BME280;57205;51.438;-2.006;2022-08-02T09:48:59;100839.78;;;24.77;60.71
66668;BME280;57205;51.438;-2.006;2022-08-02T09:51:31;100827.94;;;24.58;61.26
66668;BME280;57205;51.438;-2.006;2022-08-02T09:54:00;100841.44;;;24.66;61.19
66668;BME280;57205;51.438;-2.006;2022-08-02T09:56:37;100840.63;;;24.66;60.88
66668;BME280;57205;51.438;-2.006;2022-08-02T09:59:07;100836.59;;;24.60;61.18
66668;BME280;57205;51.438;-2.006;2022-08-02T10:01:33;100841.88;;;24.68;60.84
66668;BME280;57205;51.438;-2.006;2022-08-02T10:04:01;100846.72;;;24.59;61.37
66668;BME280;57205;51.438;-2.006;2022-08-02T10:06:28;100846.53;;;24.68;61.22
66668;BME280;57205;51.438;-2.006;2022-08-02T10:08:57;100832.59;;;24.57;60.99
66668;BME280;57205;51.438;-2.006;2022-08-02T10:11:24;100842.13;;;24.48;61.05
66668;BME280;57205;51.438;-2.006;2022-08-02T10:13:50;100832.28;;;24.74;60.58
66668;BME280;57205;51.438;-2.006;2022-08-02T10:16:19;100838.38;;;24.99;60.26
66668;BME280;57205;51.438;-2.006;2022-08-02T10:18:52;100849.81;;;25.20;59.55
66668;BME280;57205;51.438;-2.006;2022-08-02T10:21:22;100842.25;;;25.33;58.60
66668;BME280;57205;51.438;-2.006;2022-08-02T10:23:49;100847.84;;;25.36;58.34
66668;BME280;57205;51.438;-2.006;2022-08-02T10:26:17;100850.25;;;25.22;58.63
66668;BME280;57205;51.438;-2.006;2022-08-02T10:28:48;100836.56;;;25.22;58.98
66668;BME280;57205;51.438;-2.006;2022-08-02T10:31:19;100846.44;;;25.27;59.10
66668;BME280;57205;51.438;-2.006;2022-08-02T10:33:47;100841.31;;;25.25;58.82
66668;BME280;57205;51.438;-2.006;2022-08-02T10:36:14;100836.13;;;25.20;59.03
66668;BME280;57205;51.438;-2.006;2022-08-02T10:38:40;100841.16;;;25.18;59.19
66668;BME280;57205;51.438;-2.006;2022-08-02T10:41:06;100839.56;;;25.17;59.34
66668;BME280;57205;51.438;-2.006;2022-08-02T10:46:30;100841.03;;;25.46;58.61
66668;BME280;57205;51.438;-2.006;2022-08-02T10:49:12;100835.63;;;25.68;57.89
66668;BME280;57205;51.438;-2.006;2022-08-02T10:54:33;100837.66;;;26.29;56.38
66668;BME280;57205;51.438;-2.006;2022-08-02T10:56:59;100836.47;;;26.94;54.75
66668;BME280;57205;51.438;-2.006;2022-08-02T10:59:35;100829.34;;;27.16;53.55
66668;BME280;57205;51.438;-2.006;2022-08-02T11:02:04;100834.25;;;27.29;52.75
66668;BME280;57205;51.438;-2.006;2022-08-02T11:07:17;100832.81;;;26.86;54.23
66668;BME280;57205;51.438;-2.006;2022-08-02T11:09:44;100837.56;;;26.67;54.61
66668;BME280;57205;51.438;-2.006;2022-08-02T11:12:15;100839.03;;;26.38;55.96
66668;BME280;57205;51.438;-2.006;2022-08-02T11:14:44;100837.25;;;26.27;56.74
66668;BME280;57205;51.438;-2.006;2022-08-02T11:17:12;100841.06;;;26.03;56.67
66668;BME280;57205;51.438;-2.006;2022-08-02T11:22:35;100854.09;;;25.37;58.91
66668;BME280;57205;51.438;-2.006;2022-08-02T11:28:00;100848.41;;;25.26;59.23
66668;BME280;57205;51.438;-2.006;2022-08-02T11:30:32;100842.75;;;25.19;59.74
66668;BME280;57205;51.438;-2.006;2022-08-02T11:32:59;100848.06;;;25.12;60.27
66668;BME280;57205;51.438;-2.006;2022-08-02T11:35:32;100841.88;;;25.15;59.64
66668;BME280;57205;51.438;-2.006;2022-08-02T11:38:12;100840.09;;;25.23;59.42
66668;BME280;57205;51.438;-2.006;2022-08-02T11:40:38;100835.94;;;25.29;59.40
66668;BME280;57205;51.438;-2.006;2022-08-02T11:43:03;100828.94;;;25.31;59.09
66668;BME280;57205;51.438;-2.006;2022-08-02T11:45:39;100831.75;;;25.35;59.58
66668;BME280;57205;51.438;-2.006;2022-08-02T11:48:04;100830.00;;;25.42;59.05
66668;BME280;57205;51.438;-2.006;2022-08-02T11:50:30;100824.94;;;25.44;59.50
66668;BME280;57205;51.438;-2.006;2022-08-02T11:52:56;100835.47;;;25.42;59.29
66668;BME280;57205;51.438;-2.006;2022-08-02T11:55:29;100827.69;;;25.44;58.91
66668;BME280;57205;51.438;-2.006;2022-08-02T11:58:03;100834.84;;;25.49;59.01
66668;BME280;57205;51.438;-2.006;2022-08-02T12:00:29;100820.22;;;25.60;58.85
66668;BME280;57205;51.438;-2.006;2022-08-02T12:02:55;100817.47;;;25.79;58.51
66668;BME280;57205;51.438;-2.006;2022-08-02T12:05:22;100825.69;;;25.98;58.19
66668;BME280;57205;51.438;-2.006;2022-08-02T12:07:51;100817.16;;;26.03;58.08
66668;BME280;57205;51.438;-2.006;2022-08-02T12:10:19;100819.28;;;26.10;58.02
66668;BME280;57205;51.438;-2.006;2022-08-02T12:12:52;100810.44;;;26.20;57.58
66668;BME280;57205;51.438;-2.006;2022-08-02T12:15:50;100822.56;;;26.38;57.57
66668;BME280;57205;51.438;-2.006;2022-08-02T12:18:18;100819.88;;;26.64;56.60
66668;BME280;57205;51.438;-2.006;2022-08-02T12:21:03;100829.06;;;26.98;55.97
66668;BME280;57205;51.438;-2.006;2022-08-02T12:23:48;100813.22;;;27.14;54.63
66668;BME280;57205;51.438;-2.006;2022-08-02T12:26:14;100819.16;;;27.16;54.33
66668;BME280;57205;51.438;-2.006;2022-08-02T12:28:40;100812.00;;;27.38;53.96
66668;BME280;57205;51.438;-2.006;2022-08-02T12:31:07;100815.47;;;27.31;54.72
66668;BME280;57205;51.438;-2.006;2022-08-02T12:33:49;100826.09;;;27.33;54.74
66668;BME280;57205;51.438;-2.006;2022-08-02T12:36:20;100831.28;;;27.15;56.02
66668;BME280;57205;51.438;-2.006;2022-08-02T12:38:57;100818.34;;;27.16;55.25
66668;BME280;57205;51.438;-2.006;2022-08-02T12:41:24;100825.97;;;26.99;55.43
66668;BME280;57205;51.438;-2.006;2022-08-02T12:43:50;100812.31;;;26.80;56.37
66668;BME280;57205;51.438;-2.006;2022-08-02T12:46:23;100817.91;;;26.65;56.17
66668;BME280;57205;51.438;-2.006;2022-08-02T12:48:49;100812.78;;;26.41;56.45
66668;BME280;57205;51.438;-2.006;2022-08-02T12:51:36;100819.91;;;26.23;57.21
66668;BME280;57205;51.438;-2.006;2022-08-02T12:54:16;100814.88;;;26.05;57.87
66668;BME280;57205;51.438;-2.006;2022-08-02T12:56:43;100816.03;;;25.85;58.72
66668;BME280;57205;51.438;-2.006;2022-08-02T12:59:09;100820.50;;;25.74;59.34
66668;BME280;57205;51.438;-2.006;2022-08-02T13:01:35;100809.25;;;25.60;61.46
66668;BME280;57205;51.438;-2.006;2022-08-02T13:04:01;100810.53;;;25.47;60.55
66668;BME280;57205;51.438;-2.006;2022-08-02T13:06:26;100806.75;;;25.36;60.94
66668;BME280;57205;51.438;-2.006;2022-08-02T13:08:52;100816.41;;;25.30;60.79
66668;BME280;57205;51.438;-2.006;2022-08-02T13:11:23;100812.09;;;25.13;61.07
66668;BME280;57205;51.438;-2.006;2022-08-02T13:13:49;100813.53;;;25.07;61.26
66668;BME280;57205;51.438;-2.006;2022-08-02T13:16:14;100823.53;;;25.00;61.72
66668;BME280;57205;51.438;-2.006;2022-08-02T13:18:40;100828.56;;;24.98;62.48
66668;BME280;57205;51.438;-2.006;2022-08-02T13:21:06;100821.16;;;24.98;62.39
66668;BME280;57205;51.438;-2.006;2022-08-02T13:23:33;100816.88;;;25.01;61.96